createdAt,value
2023-01-28T00:01:17.298Z,1.67
2023-01-28T00:03:44.437Z,1.74
2023-01-28T00:06:14.753Z,1.66
2023-01-28T00:08:42.065Z,1.71
2023-01-28T00:11:11.152Z,1.77
2023-01-28T00:13:38.307Z,1.89
2023-01-28T00:16:08.962Z,1.91
2023-01-28T00:18:36.022Z,1.99
2023-01-28T00:21:08.528Z,1.98
2023-01-28T00:23:37.005Z,1.90
2023-01-28T00:26:06.605Z,1.89
2023-01-28T00:28:33.769Z,1.78
2023-01-28T00:31:06.589Z,1.67
2023-01-28T00:33:33.837Z,1.46
2023-01-28T00:36:06.704Z,1.75
2023-01-28T00:38:34.761Z,1.65
2023-01-28T00:41:13.496Z,1.62
2023-01-28T00:43:41.472Z,1.73
2023-01-28T00:46:10.712Z,1.77
2023-01-28T00:48:38.919Z,1.74
2023-01-28T00:51:06.440Z,1.68
2023-01-28T00:53:36.133Z,1.74
2023-01-28T00:56:03.789Z,1.69
2023-01-28T00:58:33.009Z,1.70
2023-01-28T01:01:08.542Z,1.58
2023-01-28T01:03:35.695Z,1.53
2023-01-28T01:06:02.724Z,1.44
2023-01-28T01:08:34.975Z,1.51
2023-01-28T01:11:06.497Z,1.37
2023-01-28T01:13:37.013Z,1.35
2023-01-28T01:16:18.343Z,1.28
2023-01-28T01:18:48.932Z,1.34
2023-01-28T01:21:19.245Z,1.34
2023-01-28T01:23:46.715Z,1.38
2023-01-28T01:26:14.420Z,1.37
2023-01-28T01:28:41.656Z,1.37
2023-01-28T01:31:15.004Z,1.35
2023-01-28T01:33:42.635Z,1.18
2023-01-28T01:36:10.638Z,1.27
2023-01-28T01:38:38.047Z,1.32
2023-01-28T01:41:05.980Z,1.36
2023-01-28T01:43:51.280Z,1.30
2023-01-28T01:46:36.214Z,1.22
2023-01-28T01:49:23.742Z,1.25
2023-01-28T01:51:58.657Z,1.32
2023-01-28T01:54:29.763Z,1.44
2023-01-28T01:56:58.235Z,1.41
2023-01-28T01:59:31.815Z,1.41
2023-01-28T02:02:05.261Z,1.43
2023-01-28T02:04:34.893Z,1.31
2023-01-28T02:07:03.204Z,1.40
2023-01-28T02:09:36.312Z,1.58
2023-01-28T02:12:11.799Z,1.47
2023-01-28T02:14:45.400Z,1.43
2023-01-28T02:17:12.273Z,1.33
2023-01-28T02:19:56.219Z,1.42
2023-01-28T02:22:57.232Z,1.40
2023-01-28T02:25:45.498Z,1.45
2023-01-28T02:28:29.959Z,1.41
2023-01-28T02:31:11.709Z,1.46
2023-01-28T02:33:46.425Z,1.47
2023-01-28T02:36:22.302Z,1.57
2023-01-28T02:38:52.820Z,1.58
2023-01-28T02:41:47.215Z,1.43
2023-01-28T02:44:14.655Z,1.43
2023-01-28T02:47:00.019Z,1.38
2023-01-28T02:49:33.861Z,1.31
2023-01-28T02:52:10.761Z,1.30
2023-01-28T02:54:55.954Z,1.32
2023-01-28T02:57:34.654Z,1.31
2023-01-28T03:00:15.904Z,1.30
2023-01-28T03:03:00.901Z,1.30
2023-01-28T03:05:38.879Z,1.28
2023-01-28T03:08:28.350Z,1.13
2023-01-28T03:11:16.265Z,1.18
2023-01-28T03:14:03.181Z,1.02
2023-01-28T03:16:51.619Z,0.99
2023-01-28T03:19:38.015Z,0.98
2023-01-28T03:22:24.285Z,0.80
2023-01-28T03:25:11.810Z,0.77
2023-01-28T03:28:10.182Z,0.74
2023-01-28T03:31:01.679Z,0.80
2023-01-28T03:33:56.780Z,0.90
2023-01-28T03:36:43.045Z,0.74
2023-01-28T03:39:23.176Z,0.78
2023-01-28T03:42:18.788Z,0.74
2023-01-28T03:44:57.634Z,0.80
2023-01-28T03:47:29.997Z,0.79
2023-01-28T03:50:02.299Z,0.77
2023-01-28T03:52:35.606Z,0.84
2023-01-28T03:55:28.307Z,0.85
2023-01-28T03:57:55.243Z,0.80
2023-01-28T04:00:23.432Z,0.86
2023-01-28T04:02:50.562Z,0.85
2023-01-28T04:05:20.747Z,0.81
2023-01-28T04:07:51.836Z,0.80
2023-01-28T04:10:43.948Z,0.83
2023-01-28T04:13:25.499Z,0.62
2023-01-28T04:15:52.847Z,0.70
2023-01-28T04:18:20.989Z,0.65
2023-01-28T04:20:50.314Z,0.71
2023-01-28T04:23:18.023Z,0.81
2023-01-28T04:25:45.164Z,0.69
2023-01-28T04:28:12.017Z,0.72
2023-01-28T04:30:38.870Z,0.74
2023-01-28T04:33:12.657Z,0.77
2023-01-28T04:36:02.896Z,0.85
2023-01-28T04:38:52.483Z,1.01
2023-01-28T04:41:39.381Z,0.94
2023-01-28T04:44:21.571Z,0.91
2023-01-28T04:47:01.626Z,0.91
2023-01-28T04:49:42.271Z,0.88
2023-01-28T04:52:31.737Z,0.84
2023-01-28T04:55:16.860Z,0.90
2023-01-28T04:57:46.771Z,0.78
2023-01-28T05:00:13.946Z,0.74
2023-01-28T05:02:40.819Z,0.74
2023-01-28T05:05:09.145Z,0.78
2023-01-28T05:07:58.926Z,0.86
2023-01-28T05:10:27.550Z,0.83
2023-01-28T05:12:55.265Z,0.96
2023-01-28T05:15:22.465Z,0.74
2023-01-28T05:17:50.717Z,0.78
2023-01-28T05:20:21.796Z,0.74
2023-01-28T05:22:49.899Z,0.71
2023-01-28T05:25:20.438Z,0.76
2023-01-28T05:27:52.352Z,0.78
2023-01-28T05:30:20.264Z,0.86
2023-01-28T05:32:47.617Z,0.98
2023-01-28T05:35:17.875Z,0.97
2023-01-28T05:37:44.995Z,0.99
2023-01-28T05:40:14.397Z,0.99
2023-01-28T05:42:41.723Z,1.00
2023-01-28T05:45:21.516Z,1.05
2023-01-28T05:48:11.374Z,1.13
2023-01-28T05:50:59.101Z,1.25
2023-01-28T05:53:33.468Z,1.24
2023-01-28T05:56:00.804Z,1.17
2023-01-28T05:58:32.203Z,1.14
2023-01-28T06:01:02.477Z,1.06
2023-01-28T06:03:37.989Z,1.02
2023-01-28T06:06:05.054Z,0.90
2023-01-28T06:08:32.117Z,0.92
2023-01-28T06:10:59.962Z,0.94
2023-01-28T06:13:28.997Z,0.97
2023-01-28T06:16:16.117Z,1.03
2023-01-28T06:18:58.014Z,0.90
2023-01-28T06:21:25.025Z,0.82
2023-01-28T06:23:51.859Z,0.78
2023-01-28T06:26:18.864Z,0.79
2023-01-28T06:28:47.915Z,0.79
2023-01-28T06:31:14.779Z,0.85
2023-01-28T06:33:41.645Z,0.80
2023-01-28T06:36:08.855Z,0.92
2023-01-28T06:38:35.891Z,1.06
2023-01-28T06:41:03.070Z,1.04
2023-01-28T06:43:31.246Z,1.18
2023-01-28T06:45:59.113Z,1.04
2023-01-28T06:48:26.941Z,1.00
2023-01-28T06:50:54.271Z,0.84
2023-01-28T06:53:21.674Z,1.00
2023-01-28T06:55:48.544Z,1.04
2023-01-28T06:58:15.395Z,1.00
2023-01-28T07:00:42.228Z,1.09
2023-01-28T07:03:09.353Z,1.19
2023-01-28T07:05:37.620Z,1.21
2023-01-28T07:08:04.511Z,1.27
2023-01-28T07:10:31.332Z,1.42
2023-01-28T07:12:58.128Z,1.44
2023-01-28T07:15:24.863Z,1.45
2023-01-28T07:17:51.774Z,1.48
2023-01-28T07:20:18.944Z,1.55
2023-01-28T07:22:47.269Z,1.55
2023-01-28T07:25:15.424Z,1.57
2023-01-28T07:27:51.405Z,1.53
2023-01-28T07:30:19.724Z,1.41
2023-01-28T07:32:47.060Z,1.52
2023-01-28T07:35:14.434Z,1.59
2023-01-28T07:37:41.410Z,1.56
2023-01-28T07:40:09.022Z,1.65
2023-01-28T07:42:36.092Z,1.69
2023-01-28T07:45:07.265Z,1.71
2023-01-28T07:47:34.327Z,1.61
2023-01-28T07:50:01.192Z,1.51
2023-01-28T07:52:28.567Z,1.61
2023-01-28T07:54:55.379Z,1.75
2023-01-28T07:57:24.964Z,1.84
2023-01-28T07:59:51.904Z,1.78
2023-01-28T08:02:19.201Z,1.75
2023-01-28T08:04:47.652Z,1.78
2023-01-28T08:07:14.508Z,1.71
2023-01-28T08:09:41.342Z,1.80
2023-01-28T08:12:08.245Z,1.86
2023-01-28T08:14:35.474Z,2.08
2023-01-28T08:17:02.650Z,1.98
2023-01-28T08:19:30.060Z,1.90
2023-01-28T08:21:56.934Z,2.11
2023-01-28T08:24:23.786Z,2.03
2023-01-28T08:26:50.522Z,2.00
2023-01-28T08:29:17.355Z,1.93
2023-01-28T08:31:44.302Z,2.04
2023-01-28T08:34:11.195Z,1.99
2023-01-28T08:36:38.000Z,1.95
2023-01-28T08:39:06.927Z,1.90
2023-01-28T08:41:33.721Z,2.03
2023-01-28T08:44:00.590Z,2.17
2023-01-28T08:46:27.502Z,2.32
2023-01-28T08:48:54.327Z,2.20
2023-01-28T08:51:22.646Z,2.26
2023-01-28T08:53:49.564Z,2.34
2023-01-28T08:56:16.779Z,2.42
2023-01-28T08:58:45.142Z,2.56
2023-01-28T09:01:12.038Z,2.54
2023-01-28T09:03:38.864Z,2.41
2023-01-28T09:06:06.742Z,2.22
2023-01-28T09:08:33.738Z,2.25
2023-01-28T09:11:01.789Z,2.46
2023-01-28T09:13:28.951Z,2.34
2023-01-28T09:15:56.166Z,2.32
2023-01-28T09:18:23.299Z,2.35
2023-01-28T09:20:50.164Z,2.33
2023-01-28T09:23:18.322Z,2.56
2023-01-28T09:25:45.207Z,2.76
2023-01-28T09:28:12.421Z,2.89
2023-01-28T09:30:39.872Z,2.77
2023-01-28T09:33:07.323Z,2.69
2023-01-28T09:45:17.805Z,2.47
2023-01-28T09:47:54.556Z,2.40
2023-01-28T09:50:35.369Z,2.23
2023-01-28T09:53:18.024Z,2.41
2023-01-28T09:55:49.813Z,2.50
2023-01-28T09:58:18.525Z,2.41
2023-01-28T10:00:51.251Z,2.20
2023-01-28T10:03:42.868Z,2.13
2023-01-28T10:06:34.069Z,2.48
2023-01-28T10:09:43.039Z,2.44
2023-01-28T10:12:57.074Z,2.60
2023-01-28T10:15:53.916Z,2.70
2023-01-28T10:18:31.091Z,2.61
2023-01-28T10:21:24.518Z,2.83
2023-01-28T10:24:18.787Z,2.50
2023-01-28T10:26:46.063Z,2.69
2023-01-28T10:29:19.713Z,2.88
2023-01-28T10:31:54.194Z,2.98
2023-01-28T10:34:22.423Z,3.26
2023-01-28T10:36:50.533Z,2.93
2023-01-28T10:39:21.732Z,2.74
2023-01-28T10:41:57.459Z,2.92
2023-01-28T10:44:34.767Z,2.70
2023-01-28T10:47:07.900Z,2.83
2023-01-28T10:49:41.605Z,2.74
2023-01-28T10:52:15.880Z,2.75
2023-01-28T10:54:42.905Z,2.92
2023-01-28T10:57:16.773Z,3.04
2023-01-28T10:59:43.984Z,3.05
2023-01-28T11:02:33.594Z,2.80
2023-01-28T11:05:23.099Z,3.30
2023-01-28T11:07:50.235Z,3.18
2023-01-28T11:10:35.839Z,2.88
2023-01-28T11:13:05.164Z,3.15
2023-01-28T11:15:33.113Z,3.31
2023-01-28T11:18:04.096Z,3.32
2023-01-28T11:20:37.729Z,3.46
2023-01-28T11:23:05.678Z,3.64
2023-01-28T11:25:35.558Z,3.62
2023-01-28T11:28:06.281Z,3.47
2023-01-28T11:30:36.740Z,3.62
2023-01-28T11:33:23.839Z,3.40
2023-01-28T11:35:58.953Z,3.45
2023-01-28T11:38:26.636Z,3.19
2023-01-28T11:40:55.417Z,3.38
2023-01-28T11:43:27.124Z,3.42
2023-01-28T11:46:05.417Z,3.45
2023-01-28T11:48:44.301Z,3.51
2023-01-28T11:51:14.069Z,3.60
2023-01-28T11:53:49.499Z,3.56
2023-01-28T11:56:29.562Z,3.62
2023-01-28T11:59:25.046Z,3.23
2023-01-28T12:02:06.343Z,3.20
2023-01-28T12:05:11.314Z,3.17
2023-01-28T12:08:17.278Z,2.96
2023-01-28T12:11:20.100Z,2.83
2023-01-28T12:14:06.299Z,2.92
2023-01-28T12:16:44.961Z,2.97
2023-01-28T12:19:26.524Z,2.90
2023-01-28T12:22:27.352Z,2.65
2023-01-28T12:25:34.018Z,2.86
2023-01-28T12:28:25.777Z,2.84
2023-01-28T12:31:18.454Z,2.72
2023-01-28T12:34:04.133Z,2.77
2023-01-28T12:36:46.196Z,2.61
2023-01-28T12:39:24.679Z,2.47
2023-01-28T12:42:41.251Z,2.64
2023-01-28T12:45:33.554Z,2.61
2023-01-28T12:48:06.874Z,2.69
2023-01-28T12:50:48.969Z,2.63
2023-01-28T12:53:50.479Z,2.80
2023-01-28T12:56:37.868Z,2.59
2023-01-28T12:59:13.005Z,2.66
2023-01-28T13:01:47.786Z,2.77
2023-01-28T13:04:26.870Z,2.80
2023-01-28T13:07:08.012Z,2.69
2023-01-28T13:09:37.291Z,2.79
2023-01-28T13:12:05.420Z,2.95
2023-01-28T13:14:33.684Z,2.88
2023-01-28T13:17:26.024Z,2.92
2023-01-28T13:19:52.849Z,2.92
2023-01-28T13:22:36.153Z,2.99
2023-01-28T13:25:21.275Z,2.88
2023-01-28T13:28:06.121Z,2.75
2023-01-28T13:30:36.128Z,2.85
2023-01-28T13:33:06.458Z,2.66
2023-01-28T13:35:41.220Z,2.81
2023-01-28T13:38:14.143Z,2.83
2023-01-28T13:40:41.940Z,2.97
2023-01-28T13:43:32.624Z,3.05
2023-01-28T13:46:02.500Z,2.87
2023-01-28T13:48:52.652Z,2.68
2023-01-28T13:51:40.859Z,2.81
2023-01-28T13:54:19.004Z,2.87
2023-01-28T13:57:01.162Z,2.85
2023-01-28T13:59:46.418Z,2.62
2023-01-28T14:02:28.404Z,2.64
2023-01-28T14:05:18.697Z,2.74
2023-01-28T14:08:08.392Z,2.77
2023-01-28T14:11:11.726Z,2.78
2023-01-28T14:14:01.619Z,2.82
2023-01-28T14:16:53.181Z,2.96
2023-01-28T14:19:27.653Z,2.89
2023-01-28T14:21:54.878Z,2.79
2023-01-28T14:24:21.906Z,2.85
2023-01-28T14:26:48.767Z,2.85
2023-01-28T14:29:46.259Z,2.79
2023-01-28T14:32:20.000Z,2.53
2023-01-28T14:34:48.139Z,2.43
2023-01-28T14:37:19.306Z,2.49
2023-01-28T14:39:57.152Z,2.45
2023-01-28T14:42:31.173Z,2.50
2023-01-28T14:45:21.002Z,2.56
2023-01-28T14:48:07.577Z,2.54
2023-01-28T14:51:06.780Z,2.46
2023-01-28T14:54:04.909Z,2.36
2023-01-28T14:56:58.370Z,2.48
2023-01-28T14:59:37.684Z,2.45
2023-01-28T15:02:19.189Z,2.50
2023-01-28T15:04:46.052Z,2.58
2023-01-28T15:07:27.300Z,2.50
2023-01-28T15:10:18.380Z,2.44
2023-01-28T15:13:07.757Z,2.46
2023-01-28T15:15:37.027Z,2.62
2023-01-28T15:18:28.647Z,2.63
2023-01-28T15:20:56.921Z,2.41
2023-01-28T15:23:37.385Z,2.34
2023-01-28T15:26:15.463Z,2.42
2023-01-28T15:28:45.089Z,2.50
2023-01-28T15:31:23.918Z,2.19
2023-01-28T15:34:18.782Z,2.05
2023-01-28T15:36:47.841Z,2.23
2023-01-28T15:39:16.832Z,2.25
2023-01-28T15:41:47.796Z,2.10
2023-01-28T15:44:20.505Z,2.17
2023-01-28T15:46:47.411Z,2.13
2023-01-28T15:49:16.305Z,2.08
2023-01-28T15:51:48.760Z,2.21
2023-01-28T15:54:15.587Z,2.27
2023-01-28T15:56:42.603Z,2.28
2023-01-28T15:59:16.401Z,2.25
2023-01-28T16:01:43.547Z,2.29
2023-01-28T16:04:30.583Z,2.36
2023-01-28T16:07:04.526Z,2.33
2023-01-28T16:09:34.321Z,2.38
2023-01-28T16:12:11.131Z,2.29
2023-01-28T16:14:45.450Z,2.28
2023-01-28T16:17:19.007Z,2.31
2023-01-28T16:19:49.505Z,2.33
2023-01-28T16:22:39.886Z,2.20
2023-01-28T16:25:28.043Z,2.16
2023-01-28T16:27:56.006Z,2.08
2023-01-28T16:30:23.240Z,2.06
2023-01-28T16:32:50.292Z,2.06
2023-01-28T16:35:20.738Z,1.99
2023-01-28T16:37:48.820Z,2.02
2023-01-28T16:40:18.763Z,2.13
2023-01-28T16:42:45.922Z,2.10
2023-01-28T16:45:21.486Z,1.99
2023-01-28T16:47:48.303Z,1.93
2023-01-28T16:50:16.597Z,2.01
2023-01-28T16:52:44.968Z,2.17
2023-01-28T16:55:15.030Z,2.22
2023-01-28T16:57:43.369Z,2.02
2023-01-28T17:00:23.150Z,1.98
2023-01-28T17:02:51.247Z,1.94
2023-01-28T17:05:21.468Z,1.98
2023-01-28T17:07:49.433Z,2.01
2023-01-28T17:10:17.893Z,2.11
2023-01-28T17:12:47.501Z,1.95
2023-01-28T17:15:14.863Z,2.00
2023-01-28T17:17:41.806Z,1.90
2023-01-28T17:20:09.648Z,1.98
2023-01-28T17:22:36.583Z,1.91
2023-01-28T17:25:03.437Z,2.00
2023-01-28T17:27:30.318Z,1.85
2023-01-28T17:29:57.260Z,1.88
2023-01-28T17:32:24.219Z,1.96
2023-01-28T17:34:51.049Z,2.15
2023-01-28T17:37:17.902Z,2.08
2023-01-28T17:39:44.651Z,2.04
2023-01-28T17:42:11.456Z,1.85
2023-01-28T17:44:39.111Z,1.90
2023-01-28T17:47:05.957Z,1.97
2023-01-28T17:49:32.735Z,1.96
2023-01-28T17:51:59.515Z,1.93
2023-01-28T17:54:26.993Z,1.97
2023-01-28T17:56:54.094Z,1.89
2023-01-28T17:59:22.642Z,1.94
2023-01-28T18:01:54.557Z,1.92
2023-01-28T18:04:21.415Z,1.94
2023-01-28T18:06:49.282Z,1.99
2023-01-28T18:09:16.143Z,1.88
2023-01-28T18:11:43.003Z,1.98
2023-01-28T18:14:09.730Z,2.01
2023-01-28T18:16:36.504Z,1.95
2023-01-28T18:19:03.470Z,1.88
2023-01-28T18:21:51.231Z,1.87
2023-01-28T18:24:19.362Z,1.92
2023-01-28T18:26:46.205Z,1.88
2023-01-28T18:29:16.966Z,1.87
2023-01-28T18:31:44.308Z,1.87
2023-01-28T18:34:11.698Z,2.11
2023-01-28T18:36:38.490Z,1.98
2023-01-28T18:39:05.310Z,2.10
2023-01-28T18:41:32.136Z,2.00
2023-01-28T18:43:58.891Z,2.05
2023-01-28T18:46:25.714Z,2.19
2023-01-28T18:48:52.584Z,2.17
2023-01-28T18:51:30.046Z,2.20
2023-01-28T18:54:01.959Z,2.03
2023-01-28T18:56:29.732Z,2.09
2023-01-28T18:58:58.279Z,2.08
2023-01-28T19:01:25.341Z,1.96
2023-01-28T19:03:54.169Z,2.08
2023-01-28T19:06:20.891Z,2.09
2023-01-28T19:08:53.704Z,2.01
2023-01-28T19:11:21.999Z,2.09
2023-01-28T19:13:49.002Z,2.13
2023-01-28T19:16:16.086Z,2.16
2023-01-28T19:18:43.355Z,2.22
2023-01-28T19:21:10.217Z,2.28
2023-01-28T19:23:49.100Z,2.21
2023-01-28T19:26:21.160Z,2.24
2023-01-28T19:28:49.461Z,2.25
2023-01-28T19:31:18.948Z,2.20
2023-01-28T19:33:46.980Z,2.14
2023-01-28T19:36:14.478Z,2.20
2023-01-28T19:38:41.996Z,2.18
2023-01-28T19:41:08.975Z,2.28
2023-01-28T19:43:36.431Z,2.35
2023-01-28T19:46:06.080Z,2.29
2023-01-28T19:48:33.867Z,2.24
2023-01-28T19:51:09.308Z,2.26
2023-01-28T19:53:36.871Z,2.33
2023-01-28T19:56:06.344Z,2.16
2023-01-28T19:58:41.822Z,2.24
2023-01-28T20:01:14.486Z,2.19
2023-01-28T20:03:41.513Z,2.10
2023-01-28T20:06:16.753Z,2.27
2023-01-28T20:08:44.546Z,2.16
2023-01-28T20:11:16.210Z,2.10
2023-01-28T20:13:45.820Z,2.13
2023-01-28T20:16:16.757Z,2.25
2023-01-28T20:18:43.591Z,2.10
2023-01-28T20:21:10.445Z,2.16
2023-01-28T20:23:37.276Z,2.21
2023-01-28T20:26:04.102Z,2.09
2023-01-28T20:28:30.973Z,2.03
2023-01-28T20:30:57.935Z,2.14
2023-01-28T20:33:24.756Z,2.00
2023-01-28T20:35:51.587Z,2.11
2023-01-28T20:38:18.313Z,1.98
2023-01-28T20:40:46.147Z,2.05
2023-01-28T20:43:12.921Z,2.01
2023-01-28T20:45:39.684Z,2.03
2023-01-28T20:48:06.805Z,1.99
2023-01-28T20:50:35.017Z,2.05
2023-01-28T20:53:01.884Z,2.11
2023-01-28T20:55:28.811Z,2.05
2023-01-28T20:57:55.659Z,2.15
2023-01-28T21:00:23.237Z,2.10
2023-01-28T21:02:50.255Z,2.00
2023-01-28T21:05:17.155Z,2.04
2023-01-28T21:07:43.880Z,2.04
2023-01-28T21:10:11.349Z,2.02
2023-01-28T21:12:39.309Z,2.08
2023-01-28T21:15:08.024Z,2.09
2023-01-28T21:17:34.871Z,2.09
2023-01-28T21:20:01.614Z,1.99
2023-01-28T21:22:29.847Z,2.05
2023-01-28T21:24:56.635Z,2.11
2023-01-28T21:27:23.488Z,2.08
2023-01-28T21:29:52.958Z,2.11
2023-01-28T21:32:22.950Z,2.18
2023-01-28T21:34:51.533Z,2.23
2023-01-28T21:37:22.335Z,2.29
2023-01-28T21:39:50.299Z,2.21
2023-01-28T21:42:17.265Z,2.01
2023-01-28T21:44:44.343Z,2.03
2023-01-28T21:47:11.085Z,1.99
2023-01-28T21:49:37.887Z,1.90
2023-01-28T21:52:06.606Z,2.00
2023-01-28T21:54:34.714Z,1.97
2023-01-28T21:57:01.598Z,2.04
2023-01-28T21:59:28.559Z,1.91
2023-01-28T22:02:13.063Z,1.79
2023-01-28T22:04:41.940Z,1.98
2023-01-28T22:07:12.263Z,2.03
2023-01-28T22:09:39.568Z,1.98
2023-01-28T22:12:08.167Z,2.02
2023-01-28T22:14:35.992Z,2.01
2023-01-28T22:17:04.429Z,2.00
2023-01-28T22:19:31.332Z,2.08
2023-01-28T22:21:58.034Z,2.13
2023-01-28T22:24:25.136Z,2.24
2023-01-28T22:26:53.086Z,2.36
2023-01-28T22:29:21.116Z,2.38
2023-01-28T22:31:53.264Z,2.39
2023-01-28T22:34:21.524Z,2.34
2023-01-28T22:36:49.420Z,2.47
2023-01-28T22:39:17.434Z,2.54
2023-01-28T22:41:44.862Z,2.56
2023-01-28T22:44:12.167Z,2.59
2023-01-28T22:46:39.312Z,2.44
2023-01-28T22:49:06.353Z,2.49
2023-01-28T22:51:35.121Z,2.42
2023-01-28T22:54:02.586Z,2.47
2023-01-28T22:56:30.694Z,2.50
2023-01-28T22:59:02.511Z,2.39
2023-01-28T23:01:30.225Z,2.51
2023-01-28T23:03:56.999Z,2.44
2023-01-28T23:06:26.584Z,2.56
2023-01-28T23:08:54.518Z,2.56
2023-01-28T23:11:28.360Z,2.64
2023-01-28T23:14:19.632Z,2.73
2023-01-28T23:17:06.078Z,2.57
2023-01-28T23:19:51.655Z,2.51
2023-01-28T23:22:46.520Z,2.63
2023-01-28T23:25:13.848Z,2.78
2023-01-28T23:27:41.180Z,2.63
2023-01-28T23:30:10.311Z,2.70
2023-01-28T23:33:05.033Z,2.82
2023-01-28T23:35:32.783Z,2.80
2023-01-28T23:37:59.639Z,2.86
2023-01-28T23:40:27.350Z,2.92
2023-01-28T23:42:55.280Z,2.86
2023-01-28T23:45:22.681Z,2.76
2023-01-28T23:47:49.843Z,2.60
2023-01-28T23:50:17.212Z,2.60
2023-01-28T23:52:44.362Z,2.69
2023-01-28T23:55:11.245Z,2.79
2023-01-28T23:57:38.097Z,2.78
